createdAt,value
2023-05-07T00:00:22.750Z,165.55
2023-05-07T00:01:22.725Z,166.04
2023-05-07T00:02:22.783Z,166.54
2023-05-07T00:03:22.881Z,166.21
2023-05-07T00:04:22.784Z,166.38
2023-05-07T00:05:22.707Z,167.04
2023-05-07T00:06:22.687Z,166.54
2023-05-07T00:07:22.674Z,168.05
2023-05-07T00:08:22.640Z,168.05
2023-05-07T00:09:22.634Z,167.21
2023-05-07T00:10:22.634Z,168.90
2023-05-07T00:11:22.618Z,167.71
2023-05-07T00:12:22.596Z,168.56
2023-05-07T00:13:22.711Z,168.90
2023-05-07T00:14:22.562Z,169.59
2023-05-07T00:15:22.568Z,170.28
2023-05-07T00:16:22.626Z,169.42
2023-05-07T00:17:22.533Z,170.63
2023-05-07T00:18:22.533Z,171.68
2023-05-07T00:19:22.499Z,170.63
2023-05-07T00:20:22.507Z,171.33
2023-05-07T00:21:22.476Z,171.68
2023-05-07T00:22:22.459Z,170.98
2023-05-07T00:23:22.459Z,172.39
2023-05-07T00:24:21.499Z,171.86
2023-05-07T00:25:22.430Z,172.93
2023-05-07T00:26:22.404Z,173.11
2023-05-07T00:27:23.390Z,173.83
2023-05-07T00:28:22.410Z,174.55
2023-05-07T00:29:21.406Z,175.47
2023-05-07T00:30:21.428Z,174.92
2023-05-07T00:31:22.398Z,175.29
2023-05-07T00:32:22.417Z,175.84
2023-05-07T00:33:22.332Z,176.40
2023-05-07T00:34:22.318Z,177.72
2023-05-07T00:35:22.330Z,177.72
2023-05-07T00:36:22.270Z,177.90
2023-05-07T00:37:22.249Z,178.29
2023-05-07T00:38:22.216Z,177.90
2023-05-07T00:39:22.221Z,177.72
2023-05-07T00:40:22.227Z,179.24
2023-05-07T00:41:22.229Z,178.48
2023-05-07T00:42:22.226Z,178.67
2023-05-07T00:43:22.188Z,179.24
2023-05-07T00:44:22.151Z,180.40
2023-05-07T00:45:22.168Z,180.40
2023-05-07T00:46:22.231Z,180.60
2023-05-07T00:47:22.212Z,180.80
2023-05-07T00:48:22.128Z,179.82
2023-05-07T00:49:22.113Z,182.38
2023-05-07T00:50:22.087Z,181.19
2023-05-07T00:51:22.111Z,181.98
2023-05-07T00:52:22.071Z,182.18
2023-05-07T00:53:22.044Z,183.38
2023-05-07T00:54:22.034Z,182.38
2023-05-07T00:55:22.037Z,183.18
2023-05-07T00:56:22.446Z,184.19
2023-05-07T00:57:21.980Z,184.80
2023-05-07T00:58:21.974Z,183.78
2023-05-07T00:59:21.982Z,184.39
2023-05-07T01:00:21.942Z,184.80
2023-05-07T01:01:21.461Z,186.04
2023-05-07T01:02:21.946Z,186.04
2023-05-07T01:03:21.913Z,186.87
2023-05-07T01:04:21.902Z,186.87
2023-05-07T01:05:21.907Z,185.10
2023-05-07T01:06:21.873Z,185.94
2023-05-07T01:07:21.854Z,185.94
2023-05-07T01:08:21.841Z,186.47
2023-05-07T01:09:21.813Z,186.68
2023-05-07T01:10:21.803Z,185.62
2023-05-07T01:11:21.805Z,188.18
2023-05-07T01:12:21.801Z,188.72
2023-05-07T01:13:21.906Z,188.39
2023-05-07T01:14:21.780Z,188.83
2023-05-07T01:15:21.765Z,189.92
2023-05-07T01:16:21.793Z,190.14
2023-05-07T01:17:21.948Z,189.04
2023-05-07T01:18:21.698Z,190.69
2023-05-07T01:19:21.713Z,191.14
2023-05-07T01:20:21.736Z,190.80
2023-05-07T01:21:21.652Z,190.69
2023-05-07T01:22:21.676Z,190.03
2023-05-07T01:23:21.624Z,191.58
2023-05-07T01:24:21.629Z,192.71
2023-05-07T01:25:21.654Z,192.48
2023-05-07T01:26:21.589Z,193.62
2023-05-07T01:27:21.571Z,192.93
2023-05-07T01:28:21.563Z,193.96
2023-05-07T01:29:21.582Z,193.39
2023-05-07T01:30:21.562Z,193.05
2023-05-07T01:31:21.598Z,193.73
2023-05-07T01:32:21.550Z,192.93
2023-05-07T01:33:21.512Z,194.65
2023-05-07T01:34:21.528Z,194.77
2023-05-07T01:35:21.578Z,195.35
2023-05-07T01:36:21.446Z,194.19
2023-05-07T01:37:21.433Z,194.77
2023-05-07T01:38:21.436Z,194.54
2023-05-07T01:39:21.443Z,195.12
2023-05-07T01:40:20.901Z,195.12
2023-05-07T01:41:21.407Z,195.23
2023-05-07T01:42:21.472Z,197.23
2023-05-07T01:43:21.373Z,196.87
2023-05-07T01:44:21.354Z,196.40
2023-05-07T01:45:21.327Z,195.81
2023-05-07T01:46:21.330Z,198.30
2023-05-07T01:47:21.382Z,197.58
2023-05-07T01:48:21.287Z,196.40
2023-05-07T01:49:21.306Z,196.75
2023-05-07T01:50:21.259Z,198.66
2023-05-07T01:51:21.256Z,197.70
2023-05-07T01:52:21.252Z,197.11
2023-05-07T01:53:21.239Z,197.11
2023-05-07T01:54:21.240Z,197.94
2023-05-07T01:55:20.712Z,198.30
2023-05-07T01:56:21.218Z,197.46
2023-05-07T01:57:20.685Z,197.70
2023-05-07T01:58:20.664Z,198.78
2023-05-07T01:59:20.634Z,199.38
2023-05-07T02:00:21.117Z,198.06
2023-05-07T02:01:21.209Z,199.75
2023-05-07T02:02:20.670Z,200.48
2023-05-07T02:03:21.181Z,200.24
2023-05-07T02:04:21.074Z,198.54
2023-05-07T02:05:21.045Z,199.02
2023-05-07T02:06:21.058Z,198.78
2023-05-07T02:07:21.008Z,199.63
2023-05-07T02:08:21.006Z,200.36
2023-05-07T02:09:21.018Z,200.24
2023-05-07T02:10:21.016Z,199.75
2023-05-07T02:11:21.021Z,202.58
2023-05-07T02:12:20.975Z,200.60
2023-05-07T02:13:21.035Z,201.34
2023-05-07T02:14:20.956Z,201.34
2023-05-07T02:15:20.943Z,201.59
2023-05-07T02:16:21.044Z,200.97
2023-05-07T02:17:20.894Z,201.96
2023-05-07T02:18:20.881Z,202.46
2023-05-07T02:19:20.872Z,201.71
2023-05-07T02:20:20.848Z,202.33
2023-05-07T02:21:20.834Z,203.09
2023-05-07T02:22:20.827Z,203.46
2023-05-07T02:23:20.800Z,203.72
2023-05-07T02:24:20.798Z,203.84
2023-05-07T02:25:20.831Z,204.10
2023-05-07T02:26:20.293Z,204.35
2023-05-07T02:27:20.771Z,204.22
2023-05-07T02:28:20.733Z,203.59
2023-05-07T02:29:20.758Z,204.73
2023-05-07T02:30:20.768Z,205.37
2023-05-07T02:31:20.767Z,205.76
2023-05-07T02:32:20.694Z,205.12
2023-05-07T02:33:20.711Z,205.76
2023-05-07T02:34:20.688Z,207.98
2023-05-07T02:35:20.655Z,206.54
2023-05-07T02:36:20.687Z,207.32
2023-05-07T02:37:20.630Z,207.19
2023-05-07T02:38:20.605Z,207.71
2023-05-07T02:39:19.649Z,208.24
2023-05-07T02:40:19.631Z,208.11
2023-05-07T02:41:19.625Z,207.71
2023-05-07T02:42:20.622Z,210.11
2023-05-07T02:43:20.542Z,209.44
2023-05-07T02:44:20.550Z,208.51
2023-05-07T02:45:20.556Z,210.11
2023-05-07T02:46:20.569Z,210.38
2023-05-07T02:47:20.538Z,210.24
2023-05-07T02:48:20.495Z,211.60
2023-05-07T02:49:20.510Z,210.51
2023-05-07T02:50:20.481Z,211.46
2023-05-07T02:51:20.447Z,211.46
2023-05-07T02:52:20.405Z,211.87
2023-05-07T02:53:20.415Z,211.19
2023-05-07T02:54:19.899Z,211.05
2023-05-07T02:55:19.353Z,212.83
2023-05-07T02:56:19.851Z,212.70
2023-05-07T02:57:20.373Z,213.11
2023-05-07T02:58:20.334Z,213.11
2023-05-07T02:59:20.322Z,212.70
2023-05-07T03:00:20.325Z,213.11
2023-05-07T03:01:20.345Z,214.64
2023-05-07T03:02:20.321Z,213.80
2023-05-07T03:03:20.291Z,214.64
2023-05-07T03:04:20.282Z,214.08
2023-05-07T03:05:20.252Z,215.77
2023-05-07T03:06:20.252Z,216.49
2023-05-07T03:07:20.233Z,215.21
2023-05-07T03:08:20.227Z,215.35
2023-05-07T03:09:20.218Z,214.79
2023-05-07T03:10:20.161Z,214.36
2023-05-07T03:11:20.196Z,215.35
2023-05-07T03:12:20.153Z,215.07
2023-05-07T03:13:20.253Z,216.06
2023-05-07T03:14:20.133Z,214.79
2023-05-07T03:15:20.116Z,215.63
2023-05-07T03:16:20.149Z,216.49
2023-05-07T03:17:20.082Z,218.07
2023-05-07T03:18:20.127Z,216.49
2023-05-07T03:19:20.072Z,218.36
2023-05-07T03:20:19.827Z,217.63
2023-05-07T03:21:20.074Z,217.20
2023-05-07T03:22:20.052Z,219.38
2023-05-07T03:23:20.137Z,218.21
2023-05-07T03:24:19.996Z,219.38
2023-05-07T03:25:19.973Z,219.67
2023-05-07T03:26:19.961Z,219.67
2023-05-07T03:27:19.925Z,218.79
2023-05-07T03:28:19.939Z,219.38
2023-05-07T03:29:19.950Z,220.56
2023-05-07T03:30:20.055Z,220.86
2023-05-07T03:31:19.937Z,220.56
2023-05-07T03:32:19.995Z,222.05
2023-05-07T03:33:19.861Z,221.01
2023-05-07T03:34:19.855Z,221.60
2023-05-07T03:35:19.851Z,223.11
2023-05-07T03:36:19.827Z,222.96
2023-05-07T03:37:19.830Z,223.87
2023-05-07T03:38:19.808Z,222.35
2023-05-07T03:39:19.783Z,225.10
2023-05-07T03:40:19.772Z,225.10
2023-05-07T03:41:19.738Z,224.48
2023-05-07T03:42:19.736Z,224.02
2023-05-07T03:43:19.725Z,224.64
2023-05-07T03:44:19.695Z,225.25
2023-05-07T03:45:19.701Z,224.79
2023-05-07T03:46:19.778Z,227.12
2023-05-07T03:47:19.674Z,225.72
2023-05-07T03:48:19.657Z,227.91
2023-05-07T03:49:19.673Z,227.12
2023-05-07T03:50:19.635Z,228.07
2023-05-07T03:51:19.617Z,226.81
2023-05-07T03:52:19.615Z,227.91
2023-05-07T03:53:19.587Z,229.83
2023-05-07T03:54:19.595Z,229.19
2023-05-07T03:55:19.582Z,229.35
2023-05-07T03:56:19.784Z,229.03
2023-05-07T03:57:19.552Z,229.19
2023-05-07T03:58:19.518Z,229.35
2023-05-07T03:59:19.546Z,229.99
2023-05-07T04:00:19.506Z,229.67
2023-05-07T04:01:19.479Z,232.10
2023-05-07T04:02:19.500Z,230.15
2023-05-07T04:03:19.587Z,230.48
2023-05-07T04:04:19.623Z,229.99
2023-05-07T04:05:19.454Z,230.96
2023-05-07T04:06:19.412Z,232.10
2023-05-07T04:07:17.950Z,231.29
2023-05-07T04:08:19.387Z,230.96
2023-05-07T04:09:19.391Z,233.10
2023-05-07T04:10:19.361Z,232.10
2023-05-07T04:11:19.351Z,232.27
2023-05-07T04:12:19.364Z,231.61
2023-05-07T04:13:19.432Z,232.43
2023-05-07T04:14:19.302Z,232.60
2023-05-07T04:15:19.303Z,232.60
2023-05-07T04:16:18.368Z,232.76
2023-05-07T04:17:19.283Z,233.93
2023-05-07T04:18:19.283Z,232.27
2023-05-07T04:19:19.249Z,232.76
2023-05-07T04:20:19.257Z,232.60
2023-05-07T04:21:19.230Z,232.93
2023-05-07T04:22:19.200Z,235.44
2023-05-07T04:23:18.263Z,233.93
2023-05-07T04:24:19.169Z,234.26
2023-05-07T04:25:19.165Z,234.93
2023-05-07T04:26:19.186Z,233.76
2023-05-07T04:27:19.154Z,234.93
2023-05-07T04:28:19.124Z,235.10
2023-05-07T04:29:19.101Z,233.26
2023-05-07T04:30:19.097Z,234.09
2023-05-07T04:31:19.084Z,234.93
2023-05-07T04:32:19.093Z,235.44
2023-05-07T04:33:19.046Z,233.43
2023-05-07T04:34:19.072Z,233.10
2023-05-07T04:35:19.028Z,233.93
2023-05-07T04:36:19.026Z,234.26
2023-05-07T04:37:19.005Z,234.43
2023-05-07T04:38:18.981Z,232.93
2023-05-07T04:39:18.962Z,232.93
2023-05-07T04:40:18.946Z,232.43
2023-05-07T04:41:18.950Z,232.43
2023-05-07T04:42:18.925Z,231.78
2023-05-07T04:43:18.909Z,231.45
2023-05-07T04:44:18.892Z,232.10
2023-05-07T04:45:18.869Z,231.78
2023-05-07T04:46:18.914Z,230.31
2023-05-07T04:47:18.858Z,229.83
2023-05-07T04:48:18.830Z,226.34
2023-05-07T04:49:18.827Z,226.18
2023-05-07T04:50:18.820Z,226.18
2023-05-07T04:51:18.822Z,226.34
2023-05-07T04:52:18.784Z,224.95
2023-05-07T04:53:18.806Z,223.72
2023-05-07T04:54:18.745Z,223.87
2023-05-07T04:55:18.761Z,224.02
2023-05-07T04:56:18.735Z,222.65
2023-05-07T04:57:18.715Z,221.75
2023-05-07T04:58:18.697Z,220.26
2023-05-07T04:59:18.692Z,220.12
2023-05-07T05:00:18.709Z,219.97
2023-05-07T05:01:17.778Z,219.38
2023-05-07T05:02:20.600Z,217.63
2023-05-07T05:03:17.780Z,218.50
2023-05-07T05:04:18.679Z,217.06
2023-05-07T05:05:18.627Z,216.20
2023-05-07T05:06:18.600Z,216.49
2023-05-07T05:07:18.580Z,214.64
2023-05-07T05:08:18.645Z,213.80
2023-05-07T05:09:18.554Z,212.83
2023-05-07T05:10:18.555Z,212.56
2023-05-07T05:11:18.537Z,211.60
2023-05-07T05:12:18.501Z,209.44
2023-05-07T05:13:18.619Z,209.30
2023-05-07T05:14:18.500Z,206.54
2023-05-07T05:15:18.496Z,206.02
2023-05-07T05:16:18.518Z,204.48
2023-05-07T05:17:18.437Z,201.84
2023-05-07T05:18:18.446Z,201.46
2023-05-07T05:19:17.721Z,199.87
2023-05-07T05:20:18.440Z,198.54
2023-05-07T05:21:18.412Z,198.18
2023-05-07T05:22:18.412Z,196.63
2023-05-07T05:23:17.450Z,195.00
2023-05-07T05:24:18.364Z,193.39
2023-05-07T05:25:18.356Z,191.58
2023-05-07T05:26:18.346Z,189.92
2023-05-07T05:27:18.330Z,187.75
2023-05-07T05:28:18.310Z,185.52
2023-05-07T05:29:18.276Z,186.87
2023-05-07T05:30:18.281Z,184.80
2023-05-07T05:31:18.286Z,182.98
2023-05-07T05:32:18.249Z,182.78
2023-05-07T05:33:18.251Z,179.24
2023-05-07T05:34:18.214Z,178.10
2023-05-07T05:35:18.191Z,177.15
2023-05-07T05:36:18.179Z,176.40
2023-05-07T05:37:18.194Z,173.29
2023-05-07T05:38:18.168Z,172.39
2023-05-07T05:39:18.145Z,171.15
2023-05-07T05:40:18.132Z,170.28
2023-05-07T05:41:18.120Z,169.59
2023-05-07T05:42:18.118Z,167.54
2023-05-07T05:43:18.116Z,165.71
2023-05-07T05:44:18.078Z,165.39
2023-05-07T05:45:18.074Z,163.92
2023-05-07T05:46:18.159Z,162.01
2023-05-07T05:47:18.063Z,161.08
2023-05-07T05:48:18.071Z,159.69
2023-05-07T05:49:18.036Z,157.43
2023-05-07T05:50:17.993Z,156.69
2023-05-07T05:51:17.989Z,156.40
2023-05-07T05:52:18.000Z,154.80
2023-05-07T05:53:17.968Z,155.23
2023-05-07T05:54:17.961Z,153.52
2023-05-07T05:55:17.924Z,152.82
2023-05-07T05:56:17.924Z,153.10
2023-05-07T05:57:17.897Z,152.26
2023-05-07T05:58:17.910Z,151.15
2023-05-07T05:59:17.911Z,150.88
2023-05-07T06:00:17.876Z,149.80
2023-05-07T06:01:17.861Z,150.07
2023-05-07T06:02:17.843Z,150.20
2023-05-07T06:03:17.846Z,150.61
2023-05-07T06:04:17.797Z,151.29
2023-05-07T06:05:17.871Z,150.61
2023-05-07T06:06:17.775Z,150.47
2023-05-07T06:07:17.757Z,151.29
2023-05-07T06:08:17.751Z,151.15
2023-05-07T06:09:17.759Z,152.26
2023-05-07T06:10:17.732Z,152.12
2023-05-07T06:11:17.709Z,151.43
2023-05-07T06:12:17.709Z,151.02
2023-05-07T06:13:17.731Z,151.43
2023-05-07T06:14:17.653Z,151.84
2023-05-07T06:15:17.685Z,152.12
2023-05-07T06:16:17.669Z,153.10
2023-05-07T06:17:19.494Z,153.24
2023-05-07T06:18:17.622Z,153.10
2023-05-07T06:19:17.629Z,153.52
2023-05-07T06:20:17.597Z,155.67
2023-05-07T06:21:17.593Z,155.23
2023-05-07T06:22:17.568Z,156.84
2023-05-07T06:23:18.185Z,156.25
2023-05-07T06:24:17.572Z,157.58
2023-05-07T06:25:17.526Z,160.46
2023-05-07T06:26:17.498Z,160.92
2023-05-07T06:27:17.481Z,161.54
2023-05-07T06:28:17.466Z,160.77
2023-05-07T06:29:17.467Z,161.08
2023-05-07T06:30:17.458Z,160.15
2023-05-07T06:31:17.570Z,161.39
2023-05-07T06:32:16.467Z,161.39
2023-05-07T06:33:16.481Z,162.01
2023-05-07T06:34:17.397Z,160.61
2023-05-07T06:35:16.398Z,160.92
2023-05-07T06:36:17.459Z,159.69
2023-05-07T06:37:17.347Z,160.15
2023-05-07T06:38:17.352Z,161.08
2023-05-07T06:39:17.330Z,160.61
2023-05-07T06:40:17.308Z,162.80
2023-05-07T06:41:17.493Z,162.01
2023-05-07T06:42:17.277Z,162.33
2023-05-07T06:43:17.283Z,163.60
2023-05-07T06:44:17.261Z,164.57
2023-05-07T06:45:17.234Z,164.25
2023-05-07T06:46:17.280Z,162.96
2023-05-07T06:47:17.237Z,162.65
2023-05-07T06:48:17.202Z,163.76
2023-05-07T06:49:17.222Z,164.41
2023-05-07T06:50:17.176Z,164.90
2023-05-07T06:51:17.162Z,164.25
2023-05-07T06:52:17.176Z,163.76
2023-05-07T06:53:17.129Z,165.39
2023-05-07T06:54:17.116Z,167.04
2023-05-07T06:55:17.103Z,167.54
2023-05-07T06:56:17.090Z,168.05
2023-05-07T06:57:17.095Z,168.05
2023-05-07T06:58:17.073Z,167.88
2023-05-07T06:59:17.044Z,167.21
2023-05-07T07:00:17.033Z,167.71
2023-05-07T07:01:17.042Z,168.90
2023-05-07T07:02:18.319Z,169.24
2023-05-07T07:03:16.993Z,168.90
2023-05-07T07:04:17.102Z,169.24
2023-05-07T07:05:16.957Z,170.11
2023-05-07T07:06:16.981Z,171.15
2023-05-07T07:07:16.927Z,169.59
2023-05-07T07:08:16.921Z,169.24
2023-05-07T07:09:16.889Z,170.11
2023-05-07T07:10:16.243Z,170.11
2023-05-07T07:11:16.889Z,173.29
2023-05-07T07:12:16.866Z,171.68
2023-05-07T07:13:16.920Z,172.21
2023-05-07T07:14:16.818Z,171.86
2023-05-07T07:15:16.839Z,173.47
2023-05-07T07:16:17.017Z,176.59
2023-05-07T07:17:16.783Z,174.55
2023-05-07T07:18:16.768Z,175.47
2023-05-07T07:19:16.764Z,175.29
2023-05-07T07:20:16.981Z,174.92
2023-05-07T07:21:16.761Z,176.40
2023-05-07T07:22:16.870Z,175.29
2023-05-07T07:23:16.714Z,175.84
2023-05-07T07:24:16.701Z,176.96
2023-05-07T07:25:16.831Z,176.21
2023-05-07T07:26:16.682Z,178.10
2023-05-07T07:27:16.649Z,179.24
2023-05-07T07:28:16.676Z,179.24
2023-05-07T07:29:16.630Z,178.86
2023-05-07T07:30:16.611Z,178.67
2023-05-07T07:31:16.646Z,179.05
2023-05-07T07:32:16.580Z,181.19
2023-05-07T07:33:16.559Z,180.80
2023-05-07T07:34:16.555Z,181.58
2023-05-07T07:35:16.534Z,179.63
2023-05-07T07:36:16.534Z,181.19
2023-05-07T07:37:16.534Z,180.80
2023-05-07T07:38:16.501Z,180.99
2023-05-07T07:39:16.519Z,180.80
2023-05-07T07:40:16.472Z,182.78
2023-05-07T07:41:16.448Z,181.39
2023-05-07T07:42:16.435Z,183.18
2023-05-07T07:43:16.426Z,185.01
2023-05-07T07:44:16.804Z,184.19
2023-05-07T07:45:16.412Z,183.38
2023-05-07T07:46:16.429Z,182.98
2023-05-07T07:47:16.426Z,185.83
2023-05-07T07:48:16.381Z,186.36
2023-05-07T07:49:16.367Z,185.52
2023-05-07T07:50:24.361Z,186.47
2023-05-07T07:51:17.326Z,187.53
2023-05-07T07:52:16.309Z,187.85
2023-05-07T07:53:18.966Z,188.94
2023-05-07T07:54:15.910Z,190.58
2023-05-07T07:55:16.273Z,192.15
2023-05-07T07:56:16.285Z,193.05
2023-05-07T07:57:16.279Z,193.28
2023-05-07T07:58:16.265Z,191.47
2023-05-07T07:59:16.277Z,189.92
2023-05-07T08:00:16.214Z,191.92
2023-05-07T08:01:16.177Z,193.96
2023-05-07T08:02:16.175Z,192.71
2023-05-07T08:03:16.222Z,193.96
2023-05-07T08:04:16.226Z,193.50
2023-05-07T08:05:16.123Z,197.58
2023-05-07T08:06:16.126Z,198.78
2023-05-07T08:07:16.112Z,200.60
2023-05-07T08:08:16.120Z,199.38
2023-05-07T08:09:16.062Z,199.38
2023-05-07T08:10:16.072Z,201.09
2023-05-07T08:11:16.046Z,202.21
2023-05-07T08:12:16.038Z,204.22
2023-05-07T08:13:16.106Z,204.10
2023-05-07T08:14:15.999Z,205.37
2023-05-07T08:15:15.987Z,205.12
2023-05-07T08:16:15.999Z,206.41
2023-05-07T08:17:16.016Z,208.11
2023-05-07T08:18:15.969Z,210.78
2023-05-07T08:19:15.958Z,212.01
2023-05-07T08:20:15.941Z,211.46
2023-05-07T08:21:15.900Z,212.83
2023-05-07T08:22:15.915Z,214.50
2023-05-07T08:23:15.986Z,216.06
2023-05-07T08:24:15.875Z,215.07
2023-05-07T08:25:15.858Z,214.22
2023-05-07T08:26:15.848Z,215.35
2023-05-07T08:27:15.833Z,216.91
2023-05-07T08:28:15.831Z,216.06
2023-05-07T08:29:15.793Z,216.63
2023-05-07T08:30:15.785Z,216.77
2023-05-07T08:31:15.830Z,215.49
2023-05-07T08:32:15.781Z,216.06
2023-05-07T08:33:14.411Z,216.91
2023-05-07T08:34:15.737Z,218.50
2023-05-07T08:35:15.713Z,216.49
2023-05-07T08:36:15.722Z,215.35
2023-05-07T08:37:15.693Z,215.49
2023-05-07T08:38:15.710Z,215.21
2023-05-07T08:39:15.675Z,214.50
2023-05-07T08:40:16.053Z,215.21
2023-05-07T08:41:15.658Z,213.67
2023-05-07T08:42:15.670Z,213.80
2023-05-07T08:43:15.634Z,217.06
2023-05-07T08:44:14.483Z,217.92
2023-05-07T08:45:15.684Z,216.06
2023-05-07T08:46:15.656Z,216.77
2023-05-07T08:47:15.570Z,216.77
2023-05-07T08:48:15.568Z,216.34
2023-05-07T08:49:15.655Z,215.35
2023-05-07T08:50:15.539Z,215.49
2023-05-07T08:51:15.520Z,215.63
2023-05-07T08:52:14.544Z,214.79
2023-05-07T08:53:14.556Z,215.35
2023-05-07T08:54:15.469Z,215.21
2023-05-07T08:55:15.483Z,216.49
2023-05-07T08:56:15.446Z,214.50
2023-05-07T08:57:15.436Z,214.08
2023-05-07T08:58:15.419Z,214.22
2023-05-07T08:59:15.408Z,214.36
2023-05-07T09:00:15.402Z,214.93
2023-05-07T09:01:15.401Z,215.21
2023-05-07T09:02:15.447Z,217.92
2023-05-07T09:03:15.497Z,217.20
2023-05-07T09:04:15.412Z,219.53
2023-05-07T09:05:15.338Z,220.12
2023-05-07T09:06:15.327Z,220.86
2023-05-07T09:07:15.288Z,220.26
2023-05-07T09:08:15.277Z,221.45
2023-05-07T09:09:15.282Z,222.05
2023-05-07T09:10:15.256Z,222.96
2023-05-07T09:11:15.237Z,222.35
2023-05-07T09:12:15.219Z,222.50
2023-05-07T09:13:15.262Z,223.11
2023-05-07T09:14:15.230Z,223.72
2023-05-07T09:15:15.184Z,222.65
2023-05-07T09:16:15.232Z,223.57
2023-05-07T09:17:15.156Z,226.34
2023-05-07T09:19:15.149Z,227.44
2023-05-07T09:20:15.128Z,228.39
2023-05-07T09:21:15.114Z,229.83
2023-05-07T09:22:15.102Z,231.78
2023-05-07T09:23:15.113Z,229.35
2023-05-07T09:24:15.067Z,232.27
2023-05-07T09:25:15.094Z,231.78
2023-05-07T09:26:15.025Z,232.43
2023-05-07T09:27:15.024Z,233.26
2023-05-07T09:28:15.023Z,232.43
2023-05-07T09:29:15.000Z,231.94
2023-05-07T09:30:15.071Z,233.59
2023-05-07T09:31:15.003Z,234.93
2023-05-07T09:32:14.982Z,235.10
2023-05-07T09:33:14.971Z,233.43
2023-05-07T09:34:14.934Z,232.93
2023-05-07T09:35:14.911Z,233.59
2023-05-07T09:36:14.934Z,231.12
2023-05-07T09:37:14.908Z,231.29
2023-05-07T09:38:14.384Z,229.67
2023-05-07T09:39:14.938Z,229.03
2023-05-07T09:40:14.884Z,233.10
2023-05-07T09:41:14.841Z,230.31
2023-05-07T09:42:14.874Z,230.48
2023-05-07T09:43:13.912Z,234.09
2023-05-07T09:44:13.586Z,234.93
2023-05-07T09:45:13.517Z,235.27
2023-05-07T09:46:14.943Z,235.27
2023-05-07T09:47:14.793Z,234.43
2023-05-07T09:48:14.763Z,233.93
2023-05-07T09:49:14.748Z,237.14
2023-05-07T09:50:14.781Z,235.60
2023-05-07T09:51:14.746Z,237.31
2023-05-07T09:52:14.740Z,239.04
2023-05-07T09:53:14.686Z,240.79
2023-05-07T09:54:14.663Z,245.11
2023-05-07T09:55:14.669Z,249.21
2023-05-07T09:56:14.657Z,254.42
2023-05-07T09:57:14.922Z,255.21
2023-05-07T09:58:14.633Z,256.81
2023-05-07T09:59:14.621Z,263.20
2023-05-07T10:00:14.629Z,262.78
2023-05-07T10:01:14.627Z,264.90
2023-05-07T10:02:14.605Z,263.62
2023-05-07T10:03:14.640Z,263.20
2023-05-07T10:04:14.560Z,260.27
2023-05-07T10:05:14.544Z,255.81
2023-05-07T10:06:14.548Z,255.61
2023-05-07T10:07:14.511Z,257.42
2023-05-07T10:08:13.207Z,257.82
2023-05-07T10:09:14.505Z,258.84
2023-05-07T10:10:14.542Z,260.07
2023-05-07T10:11:14.490Z,264.26
2023-05-07T10:12:14.452Z,265.97
2023-05-07T10:13:14.777Z,272.83
2023-05-07T10:14:14.604Z,279.81
2023-05-07T10:15:14.539Z,279.81
2023-05-07T10:16:14.435Z,283.19
2023-05-07T10:17:14.454Z,286.90
2023-05-07T10:18:14.558Z,289.43
2023-05-07T10:19:15.341Z,294.10
2023-05-07T10:20:14.671Z,302.79
2023-05-07T10:21:13.275Z,307.04
2023-05-07T10:22:14.635Z,310.23
2023-05-07T10:23:13.029Z,305.61
2023-05-07T10:24:14.533Z,308.77
2023-05-07T10:25:14.679Z,305.61
2023-05-07T10:26:14.583Z,305.61
2023-05-07T10:27:14.458Z,305.04
2023-05-07T10:28:14.530Z,303.35
2023-05-07T10:29:14.569Z,305.61
2023-05-07T10:30:14.616Z,305.32
2023-05-07T10:31:14.639Z,312.89
2023-05-07T10:32:13.043Z,318.67
2023-05-07T10:33:14.418Z,314.09
2023-05-07T10:34:13.066Z,318.98
2023-05-07T10:35:13.109Z,315.00
2023-05-07T10:36:14.351Z,316.21
2023-05-07T10:37:13.025Z,323.70
2023-05-07T10:38:14.390Z,324.34
2023-05-07T10:39:13.092Z,318.36
2023-05-07T10:40:14.307Z,318.36
2023-05-07T10:41:14.308Z,319.60
2023-05-07T10:42:13.221Z,311.41
2023-05-07T10:43:14.350Z,310.52
2023-05-07T10:44:13.335Z,306.18
2023-05-07T10:45:14.602Z,303.35
2023-05-07T10:46:14.108Z,305.04
2023-05-07T10:47:14.115Z,302.23
2023-05-07T10:49:14.116Z,308.19
2023-05-07T10:50:14.038Z,307.04
2023-05-07T10:51:21.172Z,307.04
2023-05-07T10:52:13.965Z,306.18
2023-05-07T10:53:13.965Z,309.35
2023-05-07T10:54:13.946Z,307.90
2023-05-07T10:55:13.912Z,307.90
2023-05-07T10:56:13.922Z,314.09
2023-05-07T10:57:13.932Z,312.89
2023-05-07T10:58:23.517Z,312.60
2023-05-07T10:59:13.965Z,303.91
2023-05-07T11:00:14.149Z,298.11
2023-05-07T11:01:13.879Z,297.57
2023-05-07T11:02:13.916Z,321.79
2023-05-07T11:03:13.940Z,335.62
2023-05-07T11:04:13.811Z,350.31
2023-05-07T11:05:14.283Z,359.52
2023-05-07T11:06:12.595Z,359.91
2023-05-07T11:07:13.936Z,367.58
2023-05-07T11:08:13.761Z,380.61
2023-05-07T11:09:13.854Z,389.96
2023-05-07T11:10:13.357Z,405.37
2023-05-07T11:11:13.765Z,409.35
2023-05-07T11:12:13.764Z,412.90
2023-05-07T11:13:13.747Z,412.13
2023-05-07T11:14:13.690Z,415.73
2023-05-07T11:15:13.820Z,413.67
2023-05-07T11:16:13.752Z,412.64
2023-05-07T11:17:13.638Z,414.70
2023-05-07T11:18:12.709Z,411.37
2023-05-07T11:19:12.673Z,408.10
2023-05-07T11:20:12.707Z,402.19
2023-05-07T11:21:13.767Z,398.35
2023-05-07T11:22:12.681Z,395.28
2023-05-07T11:23:13.555Z,390.65
2023-05-07T11:24:13.551Z,389.96
2023-05-07T11:25:13.771Z,386.57
2023-05-07T11:26:12.624Z,390.42
2023-05-07T11:27:13.057Z,397.87
2023-05-07T11:28:14.031Z,399.54
2023-05-07T11:29:13.693Z,395.28
2023-05-07T11:30:13.510Z,396.69
2023-05-07T11:31:13.600Z,399.54
2023-05-07T11:32:13.653Z,407.85
2023-05-07T11:33:13.444Z,410.61
2023-05-07T11:34:13.414Z,407.10
2023-05-07T11:35:13.654Z,406.61
2023-05-07T11:36:13.389Z,411.37
2023-05-07T11:37:13.367Z,410.11
2023-05-07T11:38:13.347Z,412.13
2023-05-07T11:39:13.338Z,416.77
2023-05-07T11:40:13.338Z,414.95
2023-05-07T11:41:13.323Z,419.13
2023-05-07T11:42:13.305Z,422.85
2023-05-07T11:43:13.284Z,420.98
2023-05-07T11:44:13.276Z,424.46
2023-05-07T11:45:13.523Z,430.77
2023-05-07T11:46:13.340Z,422.31
2023-05-07T11:47:13.236Z,425.82
2023-05-07T11:48:13.211Z,423.39
2023-05-07T11:49:13.218Z,422.31
2023-05-07T11:50:13.205Z,428.28
2023-05-07T11:51:13.243Z,434.99
2023-05-07T11:52:12.044Z,441.61
2023-05-07T11:53:14.206Z,448.44
2023-05-07T11:54:13.155Z,449.05
2023-05-07T11:55:13.286Z,453.01
2023-05-07T11:56:13.117Z,455.18
2023-05-07T11:57:13.106Z,460.52
2023-05-07T11:58:13.107Z,461.48
2023-05-07T11:59:13.098Z,462.12
2023-05-07T12:00:13.061Z,459.25
2023-05-07T12:01:13.046Z,455.80
2023-05-07T12:02:13.062Z,453.01
2023-05-07T12:03:13.088Z,444.85
2023-05-07T12:04:13.111Z,440.15
2023-05-07T12:05:13.253Z,439.86
2023-05-07T12:06:12.808Z,443.67
2023-05-07T12:07:13.009Z,435.27
2023-05-07T12:08:11.991Z,442.20
2023-05-07T12:09:12.457Z,436.98
2023-05-07T12:10:12.015Z,426.09
2023-05-07T12:11:12.028Z,422.31
2023-05-07T12:12:12.924Z,407.35
2023-05-07T12:13:12.952Z,406.11
2023-05-07T12:14:12.891Z,400.50
2023-05-07T12:15:13.216Z,402.19
2023-05-07T12:16:12.912Z,404.88
2023-05-07T12:17:12.347Z,408.10
2023-05-07T12:18:12.978Z,408.35
2023-05-07T12:19:15.148Z,408.85
2023-05-07T12:20:11.849Z,401.22
2023-05-07T12:21:12.788Z,398.35
2023-05-07T12:22:14.089Z,390.19
2023-05-07T12:23:12.775Z,385.23
2023-05-07T12:24:12.743Z,380.39
2023-05-07T12:25:12.888Z,366.75
2023-05-07T12:26:12.710Z,361.90
2023-05-07T12:27:12.726Z,350.68
2023-05-07T12:28:12.704Z,348.82
2023-05-07T12:29:12.687Z,345.15
2023-05-07T12:30:12.737Z,339.08